sensor_id;sensor_type;location;lat;lon;timestamp;pressure;altitude;pressure_sealevel;temperature;humidity
16355;BME280;8287;51.644;8.494;2023-02-15T00:01:22;101744.63;;;5.31;76.82
16355;BME280;8287;51.644;8.494;2023-02-15T00:03:49;101744.25;;;5.39;76.42
16355;BME280;8287;51.644;8.494;2023-02-15T00:06:16;101750.94;;;5.47;76.09
16355;BME280;8287;51.644;8.494;2023-02-15T00:08:44;101745.13;;;5.45;75.87
16355;BME280;8287;51.644;8.494;2023-02-15T00:11:12;101742.50;;;5.45;75.72
16355;BME280;8287;51.644;8.494;2023-02-15T00:13:41;101738.94;;;5.51;75.65
16355;BME280;8287;51.644;8.494;2023-02-15T00:16:09;101730.56;;;5.37;75.63
16355;BME280;8287;51.644;8.494;2023-02-15T00:18:37;101738.94;;;5.51;75.19
16355;BME280;8287;51.644;8.494;2023-02-15T00:21:05;101733.22;;;5.54;74.96
16355;BME280;8287;51.644;8.494;2023-02-15T00:23:32;101731.19;;;5.44;75.07
16355;BME280;8287;51.644;8.494;2023-02-15T00:26:06;101733.63;;;5.34;75.46
16355;BME280;8287;51.644;8.494;2023-02-15T00:28:33;101719.00;;;5.38;75.65
16355;BME280;8287;51.644;8.494;2023-02-15T00:31:05;101718.75;;;5.40;75.41
16355;BME280;8287;51.644;8.494;2023-02-15T00:33:38;101721.16;;;5.41;75.44
16355;BME280;8287;51.644;8.494;2023-02-15T00:36:15;101727.59;;;5.34;75.14
16355;BME280;8287;51.644;8.494;2023-02-15T00:38:42;101712.22;;;5.26;75.80
16355;BME280;8287;51.644;8.494;2023-02-15T00:41:09;101716.97;;;5.29;75.55
16355;BME280;8287;51.644;8.494;2023-02-15T00:43:36;101721.53;;;5.33;75.40
16355;BME280;8287;51.644;8.494;2023-02-15T00:46:05;101710.56;;;5.08;74.26
16355;BME280;8287;51.644;8.494;2023-02-15T00:48:32;101718.75;;;4.84;75.14
16355;BME280;8287;51.644;8.494;2023-02-15T00:50:59;101715.44;;;4.77;76.12
16355;BME280;8287;51.644;8.494;2023-02-15T00:53:27;101712.91;;;4.82;76.34
16355;BME280;8287;51.644;8.494;2023-02-15T00:55:54;101710.41;;;4.87;76.46
16355;BME280;8287;51.644;8.494;2023-02-15T00:58:21;101707.44;;;4.83;76.29
16355;BME280;8287;51.644;8.494;2023-02-15T01:00:48;101704.94;;;4.77;76.64
16355;BME280;8287;51.644;8.494;2023-02-15T01:03:20;101711.78;;;4.78;76.66
16355;BME280;8287;51.644;8.494;2023-02-15T01:05:48;101701.03;;;4.91;76.77
16355;BME280;8287;51.644;8.494;2023-02-15T01:08:16;101693.16;;;4.91;75.85
16355;BME280;8287;51.644;8.494;2023-02-15T01:10:42;101704.53;;;5.08;76.24
16355;BME280;8287;51.644;8.494;2023-02-15T01:13:12;101699.09;;;4.86;75.02
16355;BME280;8287;51.644;8.494;2023-02-15T01:15:39;101698.91;;;4.65;75.29
16355;BME280;8287;51.644;8.494;2023-02-15T01:18:06;101700.28;;;4.67;75.53
16355;BME280;8287;51.644;8.494;2023-02-15T01:20:36;101703.16;;;4.54;75.48
16355;BME280;8287;51.644;8.494;2023-02-15T01:23:04;101699.19;;;4.52;76.01
16355;BME280;8287;51.644;8.494;2023-02-15T01:25:32;101701.69;;;4.47;76.43
16355;BME280;8287;51.644;8.494;2023-02-15T01:27:59;101699.53;;;4.44;75.86
16355;BME280;8287;51.644;8.494;2023-02-15T01:30:26;101698.97;;;4.42;75.84
16355;BME280;8287;51.644;8.494;2023-02-15T01:32:52;101691.53;;;4.27;76.16
16355;BME280;8287;51.644;8.494;2023-02-15T01:35:19;101692.59;;;4.15;77.11
16355;BME280;8287;51.644;8.494;2023-02-15T01:37:47;101685.72;;;4.14;77.83
16355;BME280;8287;51.644;8.494;2023-02-15T01:40:16;101679.38;;;4.10;77.13
16355;BME280;8287;51.644;8.494;2023-02-15T01:42:43;101678.69;;;4.03;77.35
16355;BME280;8287;51.644;8.494;2023-02-15T01:45:19;101675.03;;;4.04;78.07
16355;BME280;8287;51.644;8.494;2023-02-15T01:47:50;101669.22;;;4.02;78.30
16355;BME280;8287;51.644;8.494;2023-02-15T01:50:22;101670.38;;;3.94;78.56
16355;BME280;8287;51.644;8.494;2023-02-15T01:52:55;101669.22;;;3.90;78.58
16355;BME280;8287;51.644;8.494;2023-02-15T01:55:25;101669.69;;;3.99;78.60
16355;BME280;8287;51.644;8.494;2023-02-15T01:57:53;101671.03;;;4.13;78.89
16355;BME280;8287;51.644;8.494;2023-02-15T02:00:20;101661.56;;;4.23;78.35
16355;BME280;8287;51.644;8.494;2023-02-15T02:02:48;101658.59;;;4.31;78.16
16355;BME280;8287;51.644;8.494;2023-02-15T02:05:17;101656.72;;;4.43;77.69
16355;BME280;8287;51.644;8.494;2023-02-15T02:07:47;101655.78;;;4.61;77.16
16355;BME280;8287;51.644;8.494;2023-02-15T02:10:20;101659.09;;;4.68;76.31
16355;BME280;8287;51.644;8.494;2023-02-15T02:12:49;101658.91;;;4.58;75.19
16355;BME280;8287;51.644;8.494;2023-02-15T02:15:17;101661.28;;;4.48;75.62
16355;BME280;8287;51.644;8.494;2023-02-15T02:17:54;101658.25;;;4.28;76.10
16355;BME280;8287;51.644;8.494;2023-02-15T02:20:48;101655.63;;;4.05;76.74
16355;BME280;8287;51.644;8.494;2023-02-15T02:23:38;101649.38;;;4.06;77.13
16355;BME280;8287;51.644;8.494;2023-02-15T02:35:24;101638.41;;;3.63;78.63
16355;BME280;8287;51.644;8.494;2023-02-15T02:37:59;101640.00;;;3.64;78.40
16355;BME280;8287;51.644;8.494;2023-02-15T02:40:34;101640.13;;;3.57;78.69
16355;BME280;8287;51.644;8.494;2023-02-15T02:43:11;101637.72;;;3.56;78.99
16355;BME280;8287;51.644;8.494;2023-02-15T02:45:44;101640.13;;;3.57;78.38
16355;BME280;8287;51.644;8.494;2023-02-15T02:48:15;101639.31;;;3.45;78.85
16355;BME280;8287;51.644;8.494;2023-02-15T02:50:44;101638.97;;;3.42;79.01
16355;BME280;8287;51.644;8.494;2023-02-15T02:53:10;101633.03;;;3.46;79.08
16355;BME280;8287;51.644;8.494;2023-02-15T02:55:40;101622.28;;;3.25;80.28
16355;BME280;8287;51.644;8.494;2023-02-15T02:58:10;101627.06;;;3.28;80.00
16355;BME280;8287;51.644;8.494;2023-02-15T03:00:43;101626.97;;;3.23;79.93
16355;BME280;8287;51.644;8.494;2023-02-15T03:03:15;101622.16;;;3.20;80.09
16355;BME280;8287;51.644;8.494;2023-02-15T03:05:47;101617.97;;;3.30;79.56
16355;BME280;8287;51.644;8.494;2023-02-15T03:08:19;101614.13;;;3.33;79.28
16355;BME280;8287;51.644;8.494;2023-02-15T03:10:52;101608.41;;;3.24;80.35
16355;BME280;8287;51.644;8.494;2023-02-15T03:13:20;101607.41;;;3.37;79.34
16355;BME280;8287;51.644;8.494;2023-02-15T03:15:48;101601.69;;;3.28;79.57
16355;BME280;8287;51.644;8.494;2023-02-15T03:18:37;101602.75;;;2.98;80.82
16355;BME280;8287;51.644;8.494;2023-02-15T03:21:07;101601.63;;;3.06;80.59
16355;BME280;8287;51.644;8.494;2023-02-15T03:23:49;101597.22;;;3.06;80.87
16355;BME280;8287;51.644;8.494;2023-02-15T03:26:17;101606.00;;;3.12;80.58
16355;BME280;8287;51.644;8.494;2023-02-15T03:28:46;101600.16;;;3.09;80.00
16355;BME280;8287;51.644;8.494;2023-02-15T03:31:16;101597.66;;;3.14;80.02
16355;BME280;8287;51.644;8.494;2023-02-15T03:33:50;101601.75;;;2.99;80.27
16355;BME280;8287;51.644;8.494;2023-02-15T03:36:22;101603.28;;;2.89;80.81
16355;BME280;8287;51.644;8.494;2023-02-15T03:38:54;101604.13;;;3.01;80.21
16355;BME280;8287;51.644;8.494;2023-02-15T03:41:26;101612.53;;;2.91;80.96
16355;BME280;8287;51.644;8.494;2023-02-15T03:43:58;101612.06;;;2.94;81.11
16355;BME280;8287;51.644;8.494;2023-02-15T03:46:31;101609.91;;;2.91;80.54
16355;BME280;8287;51.644;8.494;2023-02-15T03:49:03;101604.16;;;2.83;80.89
16355;BME280;8287;51.644;8.494;2023-02-15T03:51:37;101599.59;;;2.78;81.27
16355;BME280;8287;51.644;8.494;2023-02-15T03:54:06;101603.53;;;2.69;81.44
16355;BME280;8287;51.644;8.494;2023-02-15T03:56:35;101598.78;;;2.66;81.06
16355;BME280;8287;51.644;8.494;2023-02-15T03:59:02;101599.44;;;2.62;81.28
16355;BME280;8287;51.644;8.494;2023-02-15T04:01:53;101600.31;;;2.56;81.50
16355;BME280;8287;51.644;8.494;2023-02-15T04:04:26;101602.72;;;2.57;81.80
16355;BME280;8287;51.644;8.494;2023-02-15T04:06:56;101595.72;;;2.51;81.85
16355;BME280;8287;51.644;8.494;2023-02-15T04:09:22;101598.81;;;2.48;81.82
16355;BME280;8287;51.644;8.494;2023-02-15T04:12:06;101596.91;;;2.37;82.69
16355;BME280;8287;51.644;8.494;2023-02-15T04:14:33;101584.06;;;2.36;82.70
16355;BME280;8287;51.644;8.494;2023-02-15T04:17:18;101583.53;;;2.45;83.26
16355;BME280;8287;51.644;8.494;2023-02-15T04:19:44;101589.22;;;2.42;82.81
16355;BME280;8287;51.644;8.494;2023-02-15T04:22:29;101580.34;;;2.43;82.95
16355;BME280;8287;51.644;8.494;2023-02-15T04:25:13;101584.03;;;2.54;82.68
16355;BME280;8287;51.644;8.494;2023-02-15T04:27:42;101574.72;;;2.58;82.90
16355;BME280;8287;51.644;8.494;2023-02-15T04:30:10;101576.56;;;2.57;83.15
16355;BME280;8287;51.644;8.494;2023-02-15T04:32:37;101577.94;;;2.71;81.86
16355;BME280;8287;51.644;8.494;2023-02-15T04:35:05;101577.56;;;2.56;81.42
16355;BME280;8287;51.644;8.494;2023-02-15T04:37:33;101579.84;;;2.53;81.82
16355;BME280;8287;51.644;8.494;2023-02-15T04:40:00;101577.16;;;2.41;81.66
16355;BME280;8287;51.644;8.494;2023-02-15T04:42:27;101578.84;;;2.36;82.30
16355;BME280;8287;51.644;8.494;2023-02-15T04:44:54;101566.41;;;2.31;82.07
16355;BME280;8287;51.644;8.494;2023-02-15T04:47:20;101569.03;;;2.31;82.59
16355;BME280;8287;51.644;8.494;2023-02-15T04:49:47;101562.19;;;2.30;82.77
16355;BME280;8287;51.644;8.494;2023-02-15T04:52:14;101555.34;;;2.29;82.90
16355;BME280;8287;51.644;8.494;2023-02-15T04:54:44;101562.06;;;2.25;82.79
16355;BME280;8287;51.644;8.494;2023-02-15T04:57:11;101562.19;;;2.30;82.76
16355;BME280;8287;51.644;8.494;2023-02-15T04:59:37;101554.00;;;2.27;82.68
16355;BME280;8287;51.644;8.494;2023-02-15T05:02:04;101550.59;;;2.26;82.93
16355;BME280;8287;51.644;8.494;2023-02-15T05:04:30;101551.44;;;2.20;82.66
16355;BME280;8287;51.644;8.494;2023-02-15T05:06:57;101545.16;;;2.28;82.65
16355;BME280;8287;51.644;8.494;2023-02-15T05:09:24;101546.22;;;2.20;82.77
16355;BME280;8287;51.644;8.494;2023-02-15T05:11:52;101549.34;;;2.29;83.04
16355;BME280;8287;51.644;8.494;2023-02-15T05:14:19;101548.53;;;2.28;82.03
16355;BME280;8287;51.644;8.494;2023-02-15T05:16:45;101549.50;;;2.16;82.56
16355;BME280;8287;51.644;8.494;2023-02-15T05:19:12;101545.44;;;2.20;83.08
16355;BME280;8287;51.644;8.494;2023-02-15T05:21:39;101549.13;;;2.12;83.29
16355;BME280;8287;51.644;8.494;2023-02-15T05:24:06;101540.50;;;2.12;83.45
16355;BME280;8287;51.644;8.494;2023-02-15T05:26:55;101542.59;;;2.21;83.22
16355;BME280;8287;51.644;8.494;2023-02-15T05:29:39;101546.00;;;2.22;82.57
16355;BME280;8287;51.644;8.494;2023-02-15T05:32:05;101546.22;;;2.20;82.96
16355;BME280;8287;51.644;8.494;2023-02-15T05:34:32;101542.38;;;2.23;82.41
16355;BME280;8287;51.644;8.494;2023-02-15T05:36:59;101539.13;;;2.09;82.74
16355;BME280;8287;51.644;8.494;2023-02-15T05:39:25;101543.47;;;2.15;82.84
16355;BME280;8287;51.644;8.494;2023-02-15T05:41:52;101544.63;;;2.01;82.73
16355;BME280;8287;51.644;8.494;2023-02-15T05:44:20;101538.41;;;2.02;83.39
16355;BME280;8287;51.644;8.494;2023-02-15T05:46:46;101550.59;;;2.08;83.53
16355;BME280;8287;51.644;8.494;2023-02-15T05:49:13;101541.81;;;2.21;82.82
16355;BME280;8287;51.644;8.494;2023-02-15T05:51:39;101546.09;;;2.15;82.90
16355;BME280;8287;51.644;8.494;2023-02-15T05:54:06;101536.66;;;2.14;83.36
16355;BME280;8287;51.644;8.494;2023-02-15T05:56:33;101540.88;;;1.97;82.72
16355;BME280;8287;51.644;8.494;2023-02-15T05:58:59;101549.06;;;2.01;83.42
16355;BME280;8287;51.644;8.494;2023-02-15T06:01:27;101541.56;;;2.04;83.43
16355;BME280;8287;51.644;8.494;2023-02-15T06:03:54;101537.09;;;2.11;83.44
16355;BME280;8287;51.644;8.494;2023-02-15T06:06:21;101536.66;;;2.14;83.40
16355;BME280;8287;51.644;8.494;2023-02-15T06:08:47;101541.16;;;2.07;82.99
16355;BME280;8287;51.644;8.494;2023-02-15T06:11:14;101538.03;;;1.99;83.28
16355;BME280;8287;51.644;8.494;2023-02-15T06:13:40;101537.94;;;2.05;83.45
16355;BME280;8287;51.644;8.494;2023-02-15T06:16:07;101539.63;;;2.00;83.36
16355;BME280;8287;51.644;8.494;2023-02-15T06:18:35;101535.06;;;1.95;83.67
16355;BME280;8287;51.644;8.494;2023-02-15T06:21:02;101526.44;;;1.95;83.89
16355;BME280;8287;51.644;8.494;2023-02-15T06:23:28;101534.56;;;1.87;83.38
16355;BME280;8287;51.644;8.494;2023-02-15T06:25:55;101542.53;;;1.92;83.94
16355;BME280;8287;51.644;8.494;2023-02-15T06:28:22;101532.88;;;1.92;83.73
16355;BME280;8287;51.644;8.494;2023-02-15T06:30:50;101528.44;;;1.93;83.76
16355;BME280;8287;51.644;8.494;2023-02-15T06:33:20;101531.72;;;1.88;83.39
16355;BME280;8287;51.644;8.494;2023-02-15T06:35:48;101527.38;;;1.82;83.99
16355;BME280;8287;51.644;8.494;2023-02-15T06:38:14;101532.44;;;1.77;84.58
16355;BME280;8287;51.644;8.494;2023-02-15T06:40:41;101523.38;;;1.80;85.15
16355;BME280;8287;51.644;8.494;2023-02-15T06:43:08;101527.56;;;1.81;84.92
16355;BME280;8287;51.644;8.494;2023-02-15T06:45:34;101529.75;;;1.84;85.18
16355;BME280;8287;51.644;8.494;2023-02-15T06:48:01;101531.38;;;1.85;85.42
16355;BME280;8287;51.644;8.494;2023-02-15T06:50:27;101528.38;;;1.99;85.21
16355;BME280;8287;51.644;8.494;2023-02-15T06:52:57;101525.78;;;1.99;84.43
16355;BME280;8287;51.644;8.494;2023-02-15T06:55:24;101528.69;;;1.91;84.10
16355;BME280;8287;51.644;8.494;2023-02-15T06:57:51;101534.91;;;1.90;84.31
16355;BME280;8287;51.644;8.494;2023-02-15T07:00:18;101532.31;;;1.90;84.22
16355;BME280;8287;51.644;8.494;2023-02-15T07:02:44;101542.31;;;1.93;84.22
16355;BME280;8287;51.644;8.494;2023-02-15T07:05:11;101544.78;;;2.06;83.91
16355;BME280;8287;51.644;8.494;2023-02-15T07:07:38;101550.59;;;2.08;83.61
16355;BME280;8287;51.644;8.494;2023-02-15T07:10:06;101543.41;;;2.04;83.34
16355;BME280;8287;51.644;8.494;2023-02-15T07:12:33;101541.22;;;2.01;83.75
16355;BME280;8287;51.644;8.494;2023-02-15T07:15:10;101551.63;;;2.07;83.59
16355;BME280;8287;51.644;8.494;2023-02-15T07:17:37;101542.53;;;1.92;83.92
16355;BME280;8287;51.644;8.494;2023-02-15T07:20:06;101547.09;;;1.96;84.32
16355;BME280;8287;51.644;8.494;2023-02-15T07:22:34;101545.09;;;1.98;84.58
16355;BME280;8287;51.644;8.494;2023-02-15T07:25:01;101537.53;;;2.08;84.03
16355;BME280;8287;51.644;8.494;2023-02-15T07:27:30;101541.88;;;2.14;83.52
16355;BME280;8287;51.644;8.494;2023-02-15T07:29:57;101539.03;;;2.16;83.83
16355;BME280;8287;51.644;8.494;2023-02-15T07:32:27;101535.75;;;2.20;83.48
16355;BME280;8287;51.644;8.494;2023-02-15T07:34:53;101532.38;;;2.02;84.40
16355;BME280;8287;51.644;8.494;2023-02-15T07:37:20;101529.78;;;2.02;85.84
16355;BME280;8287;51.644;8.494;2023-02-15T07:39:47;101521.31;;;2.18;85.92
16355;BME280;8287;51.644;8.494;2023-02-15T07:42:13;101521.06;;;2.37;85.21
16355;BME280;8287;51.644;8.494;2023-02-15T07:44:41;101521.25;;;2.54;84.58
16355;BME280;8287;51.644;8.494;2023-02-15T07:47:08;101523.47;;;2.68;84.06
16355;BME280;8287;51.644;8.494;2023-02-15T07:49:34;101516.78;;;2.84;83.46
16355;BME280;8287;51.644;8.494;2023-02-15T07:52:01;101525.38;;;3.02;82.91
16355;BME280;8287;51.644;8.494;2023-02-15T07:54:28;101515.69;;;3.14;82.95
16355;BME280;8287;51.644;8.494;2023-02-15T07:56:54;101507.63;;;3.27;83.17
16355;BME280;8287;51.644;8.494;2023-02-15T07:59:21;101508.88;;;3.47;83.10
16355;BME280;8287;51.644;8.494;2023-02-15T08:01:50;101500.56;;;3.62;83.10
16355;BME280;8287;51.644;8.494;2023-02-15T08:04:21;101503.63;;;3.82;81.97
16355;BME280;8287;51.644;8.494;2023-02-15T08:06:52;101502.88;;;3.98;81.17
16355;BME280;8287;51.644;8.494;2023-02-15T08:09:18;101491.91;;;4.12;81.39
16355;BME280;8287;51.644;8.494;2023-02-15T08:11:46;101492.31;;;4.21;81.02
16355;BME280;8287;51.644;8.494;2023-02-15T08:14:14;101489.81;;;4.26;81.12
16355;BME280;8287;51.644;8.494;2023-02-15T08:16:42;101490.47;;;4.33;81.23
16355;BME280;8287;51.644;8.494;2023-02-15T08:19:11;101491.53;;;4.48;80.98
16355;BME280;8287;51.644;8.494;2023-02-15T08:21:40;101487.91;;;4.66;80.90
16355;BME280;8287;51.644;8.494;2023-02-15T08:24:08;101481.97;;;4.87;80.71
16355;BME280;8287;51.644;8.494;2023-02-15T08:26:35;101476.00;;;5.08;80.90
16355;BME280;8287;51.644;8.494;2023-02-15T08:29:03;101476.06;;;5.13;78.59
16355;BME280;8287;51.644;8.494;2023-02-15T08:31:29;101477.06;;;5.45;79.04
16355;BME280;8287;51.644;8.494;2023-02-15T08:33:56;101471.03;;;5.66;78.38
16355;BME280;8287;51.644;8.494;2023-02-15T08:36:28;101468.72;;;5.91;78.08
16355;BME280;8287;51.644;8.494;2023-02-15T08:38:56;101460.84;;;6.12;77.73
16355;BME280;8287;51.644;8.494;2023-02-15T08:41:24;101462.09;;;6.31;76.60
16355;BME280;8287;51.644;8.494;2023-02-15T08:43:53;101466.50;;;6.52;76.41
16355;BME280;8287;51.644;8.494;2023-02-15T08:46:21;101474.78;;;6.65;76.10
16355;BME280;8287;51.644;8.494;2023-02-15T08:48:48;101464.91;;;6.77;76.26
16355;BME280;8287;51.644;8.494;2023-02-15T08:51:17;101465.03;;;6.92;77.66
16355;BME280;8287;51.644;8.494;2023-02-15T08:53:47;101455.44;;;7.13;77.85
16355;BME280;8287;51.644;8.494;2023-02-15T08:56:15;101459.66;;;7.19;76.97
16355;BME280;8287;51.644;8.494;2023-02-15T08:58:41;101457.06;;;7.24;77.00
16355;BME280;8287;51.644;8.494;2023-02-15T09:01:09;101453.44;;;7.35;77.13
16355;BME280;8287;51.644;8.494;2023-02-15T09:03:36;101452.19;;;7.42;76.56
16355;BME280;8287;51.644;8.494;2023-02-15T09:06:03;101441.41;;;7.49;76.50
16355;BME280;8287;51.644;8.494;2023-02-15T09:08:29;101438.00;;;7.53;75.66
16355;BME280;8287;51.644;8.494;2023-02-15T09:11:09;101430.91;;;7.59;75.57
16355;BME280;8287;51.644;8.494;2023-02-15T09:13:37;101436.97;;;7.59;76.14
16355;BME280;8287;51.644;8.494;2023-02-15T09:16:05;101432.50;;;7.65;76.22
16355;BME280;8287;51.644;8.494;2023-02-15T09:18:33;101436.53;;;7.77;75.47
16355;BME280;8287;51.644;8.494;2023-02-15T09:21:04;101433.88;;;7.82;75.55
16355;BME280;8287;51.644;8.494;2023-02-15T09:23:31;101433.69;;;7.99;75.61
16355;BME280;8287;51.644;8.494;2023-02-15T09:26:02;101426.84;;;8.08;75.34
16355;BME280;8287;51.644;8.494;2023-02-15T09:28:30;101425.06;;;8.23;75.68
16355;BME280;8287;51.644;8.494;2023-02-15T09:31:04;101429.56;;;8.33;74.25
16355;BME280;8287;51.644;8.494;2023-02-15T09:33:33;101426.41;;;8.51;74.12
16355;BME280;8287;51.644;8.494;2023-02-15T09:35:59;101425.09;;;8.63;73.28
16355;BME280;8287;51.644;8.494;2023-02-15T09:38:26;101424.28;;;8.78;73.12
16355;BME280;8287;51.644;8.494;2023-02-15T09:41:02;101424.56;;;8.96;73.50
16355;BME280;8287;51.644;8.494;2023-02-15T09:43:41;101414.47;;;9.08;73.23
16355;BME280;8287;51.644;8.494;2023-02-15T09:46:19;101411.28;;;9.26;73.12
16355;BME280;8287;51.644;8.494;2023-02-15T09:48:52;101411.22;;;9.41;72.37
16355;BME280;8287;51.644;8.494;2023-02-15T09:51:31;101409.91;;;9.49;72.13
16355;BME280;8287;51.644;8.494;2023-02-15T09:54:25;101413.81;;;9.51;70.07
16355;BME280;8287;51.644;8.494;2023-02-15T09:57:00;101415.91;;;9.64;68.92
16355;BME280;8287;51.644;8.494;2023-02-15T09:59:38;101409.00;;;9.73;69.63
16355;BME280;8287;51.644;8.494;2023-02-15T10:02:25;101411.56;;;9.83;69.39
16355;BME280;8287;51.644;8.494;2023-02-15T10:05:07;101413.13;;;9.94;68.13
16355;BME280;8287;51.644;8.494;2023-02-15T10:07:49;101410.91;;;10.16;68.61
16355;BME280;8287;51.644;8.494;2023-02-15T10:10:25;101416.41;;;10.24;66.34
16355;BME280;8287;51.644;8.494;2023-02-15T10:13:12;101413.38;;;10.41;67.39
16355;BME280;8287;51.644;8.494;2023-02-15T10:15:53;101411.38;;;10.61;67.32
16355;BME280;8287;51.644;8.494;2023-02-15T10:18:52;101417.38;;;10.72;65.04
16355;BME280;8287;51.644;8.494;2023-02-15T10:21:33;101417.16;;;10.63;62.89
16355;BME280;8287;51.644;8.494;2023-02-15T10:27:10;101404.91;;;11.01;64.97
16355;BME280;8287;51.644;8.494;2023-02-15T10:29:39;101403.44;;;11.13;63.83
16355;BME280;8287;51.644;8.494;2023-02-15T10:32:18;101399.44;;;11.39;63.76
16355;BME280;8287;51.644;8.494;2023-02-15T10:34:51;101389.06;;;11.43;61.74
16355;BME280;8287;51.644;8.494;2023-02-15T10:37:41;101388.88;;;11.63;62.42
16355;BME280;8287;51.644;8.494;2023-02-15T10:40:22;101391.97;;;11.70;62.75
16355;BME280;8287;51.644;8.494;2023-02-15T10:43:14;101396.09;;;11.76;60.49
16355;BME280;8287;51.644;8.494;2023-02-15T10:45:52;101386.34;;;11.71;62.09
16355;BME280;8287;51.644;8.494;2023-02-15T10:48:34;101387.59;;;11.97;61.60
16355;BME280;8287;51.644;8.494;2023-02-15T10:51:05;101387.88;;;11.96;60.76
16355;BME280;8287;51.644;8.494;2023-02-15T10:56:24;101379.88;;;12.33;62.38
16355;BME280;8287;51.644;8.494;2023-02-15T10:59:11;101382.81;;;12.50;61.96
16355;BME280;8287;51.644;8.494;2023-02-15T11:01:48;101382.56;;;12.65;62.10
16355;BME280;8287;51.644;8.494;2023-02-15T11:04:40;101384.28;;;12.88;60.63
16355;BME280;8287;51.644;8.494;2023-02-15T11:07:15;101382.38;;;13.07;61.87
16355;BME280;8287;51.644;8.494;2023-02-15T11:09:46;101387.19;;;13.05;60.54
16355;BME280;8287;51.644;8.494;2023-02-15T11:12:17;101375.75;;;13.18;60.77
16355;BME280;8287;51.644;8.494;2023-02-15T11:14:49;101373.97;;;13.40;58.24
16355;BME280;8287;51.644;8.494;2023-02-15T11:17:22;101369.94;;;13.42;59.61
16355;BME280;8287;51.644;8.494;2023-02-15T11:19:56;101371.44;;;13.48;58.25
16355;BME280;8287;51.644;8.494;2023-02-15T11:22:26;101369.63;;;13.57;58.21
16355;BME280;8287;51.644;8.494;2023-02-15T11:24:53;101370.19;;;13.81;59.25
16355;BME280;8287;51.644;8.494;2023-02-15T11:27:25;101372.00;;;13.94;59.61
16355;BME280;8287;51.644;8.494;2023-02-15T11:29:57;101374.81;;;14.11;58.76
16355;BME280;8287;51.644;8.494;2023-02-15T11:32:28;101369.78;;;14.23;57.47
16355;BME280;8287;51.644;8.494;2023-02-15T11:35:00;101361.00;;;14.23;57.95
16355;BME280;8287;51.644;8.494;2023-02-15T11:37:34;101359.44;;;14.44;58.59
16355;BME280;8287;51.644;8.494;2023-02-15T11:40:15;101354.63;;;14.54;57.62
16355;BME280;8287;51.644;8.494;2023-02-15T11:42:45;101366.78;;;14.69;57.09
16355;BME280;8287;51.644;8.494;2023-02-15T11:45:21;101360.22;;;14.75;56.55
16355;BME280;8287;51.644;8.494;2023-02-15T11:47:49;101349.25;;;14.76;56.32
16355;BME280;8287;51.644;8.494;2023-02-15T11:50:21;101346.63;;;14.85;56.97
16355;BME280;8287;51.644;8.494;2023-02-15T11:52:49;101352.97;;;14.97;56.61
16355;BME280;8287;51.644;8.494;2023-02-15T11:55:20;101358.03;;;15.07;56.34
16355;BME280;8287;51.644;8.494;2023-02-15T11:57:51;101355.19;;;15.12;56.34
16355;BME280;8287;51.644;8.494;2023-02-15T12:00:27;101346.44;;;15.20;56.39
16355;BME280;8287;51.644;8.494;2023-02-15T12:03:05;101342.06;;;15.24;56.06
16355;BME280;8287;51.644;8.494;2023-02-15T12:05:37;101341.44;;;15.27;54.67
16355;BME280;8287;51.644;8.494;2023-02-15T12:08:12;101339.22;;;15.29;54.97
16355;BME280;8287;51.644;8.494;2023-02-15T12:10:44;101331.41;;;15.33;54.50
16355;BME280;8287;51.644;8.494;2023-02-15T12:13:18;101331.47;;;15.50;55.88
16355;BME280;8287;51.644;8.494;2023-02-15T12:15:47;101333.84;;;15.68;55.24
16355;BME280;8287;51.644;8.494;2023-02-15T12:18:21;101338.56;;;15.88;54.52
16355;BME280;8287;51.644;8.494;2023-02-15T12:20:52;101331.78;;;15.57;52.83
16355;BME280;8287;51.644;8.494;2023-02-15T12:23:24;101318.13;;;15.75;53.36
16355;BME280;8287;51.644;8.494;2023-02-15T12:25:55;101323.66;;;15.96;52.17
16355;BME280;8287;51.644;8.494;2023-02-15T12:28:26;101311.69;;;15.93;49.79
16355;BME280;8287;51.644;8.494;2023-02-15T12:30:57;101316.09;;;15.98;52.66
16355;BME280;8287;51.644;8.494;2023-02-15T12:33:28;101304.88;;;16.21;50.92
16355;BME280;8287;51.644;8.494;2023-02-15T12:36:00;101303.78;;;16.48;51.95
16355;BME280;8287;51.644;8.494;2023-02-15T12:38:28;101300.44;;;16.51;51.33
16355;BME280;8287;51.644;8.494;2023-02-15T12:41:00;101304.38;;;16.53;49.78
16355;BME280;8287;51.644;8.494;2023-02-15T12:43:31;101293.44;;;16.75;51.48
16355;BME280;8287;51.644;8.494;2023-02-15T12:46:20;101290.41;;;16.85;49.13
16355;BME280;8287;51.644;8.494;2023-02-15T12:49:05;101281.38;;;16.98;50.01
16355;BME280;8287;51.644;8.494;2023-02-15T12:51:47;101282.28;;;17.02;49.48
16355;BME280;8287;51.644;8.494;2023-02-15T12:54:33;101280.66;;;17.09;51.54
16355;BME280;8287;51.644;8.494;2023-02-15T12:57:26;101270.88;;;17.13;49.63
16355;BME280;8287;51.644;8.494;2023-02-15T12:59:55;101265.34;;;17.18;48.87
16355;BME280;8287;51.644;8.494;2023-02-15T13:02:33;101261.03;;;17.26;48.73
16355;BME280;8287;51.644;8.494;2023-02-15T13:05:14;101263.34;;;17.36;49.55
16355;BME280;8287;51.644;8.494;2023-02-15T13:07:47;101253.22;;;17.62;49.98
16355;BME280;8287;51.644;8.494;2023-02-15T13:10:23;101241.88;;;17.65;49.13
16355;BME280;8287;51.644;8.494;2023-02-15T13:12:51;101249.31;;;17.59;47.71
16355;BME280;8287;51.644;8.494;2023-02-15T13:15:25;101255.72;;;17.46;49.88
16355;BME280;8287;51.644;8.494;2023-02-15T13:17:53;101251.25;;;17.50;48.90
16355;BME280;8287;51.644;8.494;2023-02-15T13:20:22;101254.88;;;17.54;48.69
16355;BME280;8287;51.644;8.494;2023-02-15T13:22:52;101250.28;;;17.55;48.81
16355;BME280;8287;51.644;8.494;2023-02-15T13:25:22;101244.28;;;17.58;48.94
16355;BME280;8287;51.644;8.494;2023-02-15T13:27:52;101247.47;;;17.72;48.38
16355;BME280;8287;51.644;8.494;2023-02-15T13:30:24;101249.50;;;17.75;49.86
16355;BME280;8287;51.644;8.494;2023-02-15T13:32:54;101237.34;;;17.77;48.28
16355;BME280;8287;51.644;8.494;2023-02-15T13:35:23;101245.63;;;17.64;48.84
16355;BME280;8287;51.644;8.494;2023-02-15T13:38:02;101244.16;;;17.87;50.16
16355;BME280;8287;51.644;8.494;2023-02-15T13:40:35;101244.69;;;18.01;50.31
16355;BME280;8287;51.644;8.494;2023-02-15T13:43:10;101242.25;;;18.20;49.10